sensor_id;sensor_type;location;lat;lon;timestamp;pressure;altitude;pressure_sealevel;temperature;humidity
59391;BME280;53405;57.012;40.984;2023-04-25T00:01:29;99990.47;;;12.83;43.88
59391;BME280;53405;57.012;40.984;2023-04-25T00:03:57;99955.53;;;12.60;43.75
59391;BME280;53405;57.012;40.984;2023-04-25T00:06:24;99979.75;;;12.63;44.54
59391;BME280;53405;57.012;40.984;2023-04-25T00:08:53;99982.34;;;12.57;44.98
59391;BME280;53405;57.012;40.984;2023-04-25T00:11:23;99990.31;;;12.63;45.18
59391;BME280;53405;57.012;40.984;2023-04-25T00:13:50;99980.28;;;12.52;45.88
59391;BME280;53405;57.012;40.984;2023-04-25T00:16:18;99968.63;;;12.46;45.38
59391;BME280;53405;57.012;40.984;2023-04-25T00:18:46;99994.47;;;12.51;45.25
59391;BME280;53405;57.012;40.984;2023-04-25T00:21:19;99987.81;;;12.55;46.05
59391;BME280;53405;57.012;40.984;2023-04-25T00:23:47;99998.03;;;12.65;45.81
59391;BME280;53405;57.012;40.984;2023-04-25T00:26:14;99989.94;;;12.45;46.80
59391;BME280;53405;57.012;40.984;2023-04-25T00:28:42;100003.41;;;12.50;47.08
59391;BME280;53405;57.012;40.984;2023-04-25T00:31:11;99994.38;;;12.38;47.73
59391;BME280;53405;57.012;40.984;2023-04-25T00:33:39;99998.31;;;12.48;47.01
59391;BME280;53405;57.012;40.984;2023-04-25T00:36:07;99999.38;;;12.33;47.45
59391;BME280;53405;57.012;40.984;2023-04-25T00:38:35;99998.19;;;12.35;48.18
59391;BME280;53405;57.012;40.984;2023-04-25T00:41:06;99988.81;;;12.33;47.88
59391;BME280;53405;57.012;40.984;2023-04-25T00:43:33;99996.56;;;12.34;47.58
59391;BME280;53405;57.012;40.984;2023-04-25T00:46:03;99997.63;;;12.40;48.44
59391;BME280;53405;57.012;40.984;2023-04-25T00:48:31;99980.00;;;12.19;48.57
59391;BME280;53405;57.012;40.984;2023-04-25T00:50:59;99998.56;;;12.32;49.04
59391;BME280;53405;57.012;40.984;2023-04-25T00:53:28;99982.72;;;12.10;49.53
59391;BME280;53405;57.012;40.984;2023-04-25T00:55:56;100001.78;;;12.27;49.67
59391;BME280;53405;57.012;40.984;2023-04-25T00:58:24;99999.19;;;12.34;48.43
59391;BME280;53405;57.012;40.984;2023-04-25T01:00:52;99938.16;;;12.01;48.53
59391;BME280;53405;57.012;40.984;2023-04-25T01:03:21;99972.16;;;12.10;49.57
59391;BME280;53405;57.012;40.984;2023-04-25T01:05:49;100008.91;;;12.27;49.25
59391;BME280;53405;57.012;40.984;2023-04-25T01:08:17;99982.66;;;12.04;50.29
59391;BME280;53405;57.012;40.984;2023-04-25T01:10:45;99994.44;;;12.23;50.27
59391;BME280;53405;57.012;40.984;2023-04-25T01:13:13;99998.38;;;12.34;49.99
59391;BME280;53405;57.012;40.984;2023-04-25T01:15:40;100002.16;;;12.24;49.83
59391;BME280;53405;57.012;40.984;2023-04-25T01:18:08;99982.22;;;12.22;50.21
59391;BME280;53405;57.012;40.984;2023-04-25T01:20:37;99987.69;;;12.42;50.17
59391;BME280;53405;57.012;40.984;2023-04-25T01:23:05;99981.97;;;12.38;49.79
59391;BME280;53405;57.012;40.984;2023-04-25T01:25:33;99988.00;;;12.32;50.37
59391;BME280;53405;57.012;40.984;2023-04-25T01:28:01;99988.34;;;12.44;50.67
59391;BME280;53405;57.012;40.984;2023-04-25T01:30:31;99987.75;;;12.48;50.26
59391;BME280;53405;57.012;40.984;2023-04-25T01:32:59;99995.03;;;12.46;50.25
59391;BME280;53405;57.012;40.984;2023-04-25T01:35:28;99995.00;;;12.40;50.75
59391;BME280;53405;57.012;40.984;2023-04-25T01:37:56;99996.00;;;12.39;50.88
59391;BME280;53405;57.012;40.984;2023-04-25T01:40:24;99985.28;;;12.47;50.50
59391;BME280;53405;57.012;40.984;2023-04-25T01:42:53;99997.00;;;12.38;50.97
59391;BME280;53405;57.012;40.984;2023-04-25T01:45:21;100006.50;;;12.32;51.16
59391;BME280;53405;57.012;40.984;2023-04-25T01:47:50;100001.28;;;12.39;51.37
59391;BME280;53405;57.012;40.984;2023-04-25T01:50:18;99997.81;;;12.38;51.45
59391;BME280;53405;57.012;40.984;2023-04-25T01:52:47;99994.63;;;12.43;51.31
59391;BME280;53405;57.012;40.984;2023-04-25T01:55:15;99996.44;;;12.42;51.01
59391;BME280;53405;57.012;40.984;2023-04-25T01:57:56;100000.94;;;12.48;50.77
59391;BME280;53405;57.012;40.984;2023-04-25T02:00:35;99992.41;;;12.25;51.54
59391;BME280;53405;57.012;40.984;2023-04-25T02:03:06;100011.16;;;12.30;52.29
59391;BME280;53405;57.012;40.984;2023-04-25T02:05:38;100005.75;;;12.38;51.84
59391;BME280;53405;57.012;40.984;2023-04-25T02:08:09;100011.41;;;12.35;52.52
59391;BME280;53405;57.012;40.984;2023-04-25T02:10:37;100017.88;;;12.33;52.63
59391;BME280;53405;57.012;40.984;2023-04-25T02:13:18;100006.38;;;12.40;52.50
59391;BME280;53405;57.012;40.984;2023-04-25T02:15:57;100012.28;;;12.42;51.75
59391;BME280;53405;57.012;40.984;2023-04-25T02:18:25;100006.59;;;12.45;51.89
59391;BME280;53405;57.012;40.984;2023-04-25T02:20:53;100014.28;;;12.40;52.52
59391;BME280;53405;57.012;40.984;2023-04-25T02:23:21;99994.31;;;12.09;53.44
59391;BME280;53405;57.012;40.984;2023-04-25T02:25:49;100008.56;;;12.37;52.75
59391;BME280;53405;57.012;40.984;2023-04-25T02:28:16;100010.41;;;12.15;53.00
59391;BME280;53405;57.012;40.984;2023-04-25T02:30:44;100015.53;;;12.23;53.40
59391;BME280;53405;57.012;40.984;2023-04-25T02:33:12;100014.00;;;12.28;52.86
59391;BME280;53405;57.012;40.984;2023-04-25T02:35:41;100009.47;;;12.22;53.47
59391;BME280;53405;57.012;40.984;2023-04-25T02:38:08;100014.34;;;12.04;54.47
59391;BME280;53405;57.012;40.984;2023-04-25T02:40:36;100012.66;;;12.18;54.19
59391;BME280;53405;57.012;40.984;2023-04-25T02:43:03;100008.56;;;12.15;54.11
59391;BME280;53405;57.012;40.984;2023-04-25T02:45:31;99992.34;;;12.18;53.73
59391;BME280;53405;57.012;40.984;2023-04-25T02:47:59;100009.94;;;12.33;54.26
59391;BME280;53405;57.012;40.984;2023-04-25T02:50:27;100006.75;;;12.37;54.01
59391;BME280;53405;57.012;40.984;2023-04-25T02:52:54;100006.94;;;12.36;54.50
59391;BME280;53405;57.012;40.984;2023-04-25T02:55:28;100006.50;;;12.32;54.30
59391;BME280;53405;57.012;40.984;2023-04-25T02:57:57;100014.03;;;12.35;54.21
59391;BME280;53405;57.012;40.984;2023-04-25T03:00:41;100004.38;;;12.21;55.22
59391;BME280;53405;57.012;40.984;2023-04-25T03:03:10;100008.75;;;12.14;55.27
59391;BME280;53405;57.012;40.984;2023-04-25T03:05:38;100013.84;;;12.15;54.93
59391;BME280;53405;57.012;40.984;2023-04-25T03:08:06;100014.50;;;12.17;55.06
59391;BME280;53405;57.012;40.984;2023-04-25T03:10:36;100004.97;;;12.23;54.55
59391;BME280;53405;57.012;40.984;2023-04-25T03:13:06;100029.06;;;12.35;54.79
59391;BME280;53405;57.012;40.984;2023-04-25T03:15:35;100019.81;;;12.45;54.35
59391;BME280;53405;57.012;40.984;2023-04-25T03:18:03;100018.44;;;12.28;54.55
59391;BME280;53405;57.012;40.984;2023-04-25T03:20:31;100023.84;;;12.41;55.21
59391;BME280;53405;57.012;40.984;2023-04-25T03:22:59;100021.41;;;12.40;54.95
59391;BME280;53405;57.012;40.984;2023-04-25T03:25:28;100022.44;;;12.45;55.04
59391;BME280;53405;57.012;40.984;2023-04-25T03:27:56;100018.81;;;12.46;55.00
59391;BME280;53405;57.012;40.984;2023-04-25T03:30:24;100023.63;;;12.36;55.21
59391;BME280;53405;57.012;40.984;2023-04-25T03:32:51;100029.31;;;12.40;55.46
59391;BME280;53405;57.012;40.984;2023-04-25T03:35:19;100021.84;;;12.43;55.75
59391;BME280;53405;57.012;40.984;2023-04-25T03:37:47;100024.09;;;12.46;55.54
59391;BME280;53405;57.012;40.984;2023-04-25T03:40:20;100032.59;;;12.63;55.23
59391;BME280;53405;57.012;40.984;2023-04-25T03:43:07;100012.34;;;12.27;55.81
59391;BME280;53405;57.012;40.984;2023-04-25T03:45:36;100036.69;;;12.44;55.66
59391;BME280;53405;57.012;40.984;2023-04-25T03:48:04;100037.63;;;12.37;56.15
59391;BME280;53405;57.012;40.984;2023-04-25T03:50:32;100021.16;;;12.35;55.92
59391;BME280;53405;57.012;40.984;2023-04-25T03:53:00;100016.50;;;12.37;56.13
59391;BME280;53405;57.012;40.984;2023-04-25T03:55:33;100031.16;;;12.39;56.46
59391;BME280;53405;57.012;40.984;2023-04-25T03:58:02;100021.34;;;12.33;56.21
59391;BME280;53405;57.012;40.984;2023-04-25T04:00:30;100025.97;;;12.31;56.52
59391;BME280;53405;57.012;40.984;2023-04-25T04:02:57;100033.09;;;12.31;56.70
59391;BME280;53405;57.012;40.984;2023-04-25T04:05:25;100030.81;;;12.27;56.91
59391;BME280;53405;57.012;40.984;2023-04-25T04:07:56;100020.13;;;12.36;57.12
59391;BME280;53405;57.012;40.984;2023-04-25T04:10:24;100016.56;;;12.43;56.66
59391;BME280;53405;57.012;40.984;2023-04-25T04:12:51;100026.88;;;12.60;56.33
59391;BME280;53405;57.012;40.984;2023-04-25T04:15:19;100031.59;;;12.64;56.43
59391;BME280;53405;57.012;40.984;2023-04-25T04:17:48;100026.50;;;12.63;56.94
59391;BME280;53405;57.012;40.984;2023-04-25T04:20:17;100035.09;;;12.72;56.38
59391;BME280;53405;57.012;40.984;2023-04-25T04:22:46;100029.81;;;12.72;56.93
59391;BME280;53405;57.012;40.984;2023-04-25T04:25:15;100034.56;;;12.83;56.49
59391;BME280;53405;57.012;40.984;2023-04-25T04:28:06;100027.09;;;12.87;55.91
59391;BME280;53405;57.012;40.984;2023-04-25T04:30:54;100026.44;;;12.84;56.08
59391;BME280;53405;57.012;40.984;2023-04-25T04:33:22;100029.97;;;12.92;56.04
59391;BME280;53405;57.012;40.984;2023-04-25T04:35:57;100018.13;;;12.88;56.01
59391;BME280;53405;57.012;40.984;2023-04-25T04:38:27;100008.97;;;12.83;55.63
59391;BME280;53405;57.012;40.984;2023-04-25T04:40:58;100032.44;;;13.00;55.73
59391;BME280;53405;57.012;40.984;2023-04-25T04:43:51;100042.50;;;13.11;56.09
59391;BME280;53405;57.012;40.984;2023-04-25T04:46:31;100046.16;;;13.10;55.87
59391;BME280;53405;57.012;40.984;2023-04-25T04:49:17;100037.88;;;13.20;55.32
59391;BME280;53405;57.012;40.984;2023-04-25T04:52:17;100048.50;;;13.27;55.68
59391;BME280;53405;57.012;40.984;2023-04-25T04:55:08;100041.69;;;13.39;55.03
59391;BME280;53405;57.012;40.984;2023-04-25T04:57:49;100041.59;;;13.61;55.18
59391;BME280;53405;57.012;40.984;2023-04-25T05:00:44;100042.50;;;13.81;53.85
59391;BME280;53405;57.012;40.984;2023-04-25T05:03:30;100043.31;;;13.88;54.37
59391;BME280;53405;57.012;40.984;2023-04-25T05:06:11;100037.63;;;13.91;54.10
59391;BME280;53405;57.012;40.984;2023-04-25T05:08:57;100049.34;;;14.24;54.13
59391;BME280;53405;57.012;40.984;2023-04-25T05:11:42;100049.56;;;14.29;53.59
59391;BME280;53405;57.012;40.984;2023-04-25T05:14:33;100047.34;;;14.53;53.15
59391;BME280;53405;57.012;40.984;2023-04-25T05:17:27;100043.91;;;14.72;52.48
59391;BME280;53405;57.012;40.984;2023-04-25T05:20:06;100035.34;;;14.77;52.00
59391;BME280;53405;57.012;40.984;2023-04-25T05:22:53;100036.59;;;14.88;52.04
59391;BME280;53405;57.012;40.984;2023-04-25T05:25:35;100028.22;;;15.04;51.85
59391;BME280;53405;57.012;40.984;2023-04-25T05:28:13;100026.59;;;15.03;50.79
59391;BME280;53405;57.012;40.984;2023-04-25T05:31:10;100034.09;;;15.13;50.98
59391;BME280;53405;57.012;40.984;2023-04-25T05:33:47;100036.13;;;15.17;50.60
59391;BME280;53405;57.012;40.984;2023-04-25T05:36:15;100022.44;;;15.27;50.23
59391;BME280;53405;57.012;40.984;2023-04-25T05:38:44;100037.28;;;15.55;49.49
59391;BME280;53405;57.012;40.984;2023-04-25T05:41:14;100031.56;;;15.58;49.74
59391;BME280;53405;57.012;40.984;2023-04-25T05:43:48;100034.03;;;15.53;49.48
59391;BME280;53405;57.012;40.984;2023-04-25T05:46:24;100010.03;;;15.73;48.01
59391;BME280;53405;57.012;40.984;2023-04-25T05:49:11;100033.72;;;15.81;48.60
59391;BME280;53405;57.012;40.984;2023-04-25T05:51:59;100026.75;;;15.87;48.83
59391;BME280;53405;57.012;40.984;2023-04-25T05:54:48;100037.94;;;16.02;48.35
59391;BME280;53405;57.012;40.984;2023-04-25T05:57:23;100029.06;;;16.15;48.24
59391;BME280;53405;57.012;40.984;2023-04-25T05:59:56;100031.63;;;16.29;47.92
59391;BME280;53405;57.012;40.984;2023-04-25T06:02:39;100027.72;;;16.31;46.89
59391;BME280;53405;57.012;40.984;2023-04-25T06:05:09;100029.69;;;16.42;46.86
59391;BME280;53405;57.012;40.984;2023-04-25T06:07:36;100030.75;;;16.41;46.36
59391;BME280;53405;57.012;40.984;2023-04-25T06:10:05;100027.66;;;16.44;46.80
59391;BME280;53405;57.012;40.984;2023-04-25T06:12:33;100028.34;;;16.58;46.77
59391;BME280;53405;57.012;40.984;2023-04-25T06:15:04;100026.31;;;16.60;46.33
59391;BME280;53405;57.012;40.984;2023-04-25T06:17:34;100034.09;;;16.80;45.48
59391;BME280;53405;57.012;40.984;2023-04-25T06:20:03;100021.63;;;16.81;44.50
59391;BME280;53405;57.012;40.984;2023-04-25T06:22:32;100020.16;;;16.92;44.40
59391;BME280;53405;57.012;40.984;2023-04-25T06:25:00;100021.16;;;16.91;45.29
59391;BME280;53405;57.012;40.984;2023-04-25T06:27:31;100026.97;;;17.06;43.96
59391;BME280;53405;57.012;40.984;2023-04-25T06:29:59;100036.06;;;17.17;43.23
59391;BME280;53405;57.012;40.984;2023-04-25T06:32:33;100020.72;;;16.94;43.00
59391;BME280;53405;57.012;40.984;2023-04-25T06:35:01;100030.69;;;17.24;42.83
59391;BME280;53405;57.012;40.984;2023-04-25T06:37:30;100029.00;;;17.04;43.67
59391;BME280;53405;57.012;40.984;2023-04-25T06:39:59;100032.00;;;17.14;43.25
59391;BME280;53405;57.012;40.984;2023-04-25T06:42:26;100025.56;;;17.22;43.28
59391;BME280;53405;57.012;40.984;2023-04-25T06:45:00;100016.19;;;17.38;43.29
59391;BME280;53405;57.012;40.984;2023-04-25T06:47:32;100023.06;;;17.46;41.80
59391;BME280;53405;57.012;40.984;2023-04-25T06:50:01;100026.44;;;17.53;41.86
59391;BME280;53405;57.012;40.984;2023-04-25T06:52:30;100019.72;;;17.69;41.93
59391;BME280;53405;57.012;40.984;2023-04-25T06:54:59;100012.69;;;17.75;41.79
59391;BME280;53405;57.012;40.984;2023-04-25T06:57:38;100016.53;;;17.79;41.77
59391;BME280;53405;57.012;40.984;2023-04-25T07:00:38;100014.00;;;17.65;41.33
59391;BME280;53405;57.012;40.984;2023-04-25T07:03:05;100022.91;;;17.59;40.82
59391;BME280;53405;57.012;40.984;2023-04-25T07:05:33;100025.53;;;17.78;40.56
59391;BME280;53405;57.012;40.984;2023-04-25T07:08:01;99985.50;;;17.36;41.56
59391;BME280;53405;57.012;40.984;2023-04-25T07:10:30;99999.91;;;17.46;43.04
59391;BME280;53405;57.012;40.984;2023-04-25T07:12:57;100009.91;;;17.81;42.26
59391;BME280;53405;57.012;40.984;2023-04-25T07:15:26;100013.78;;;17.85;41.65
59391;BME280;53405;57.012;40.984;2023-04-25T07:17:54;100012.09;;;17.91;40.84
59391;BME280;53405;57.012;40.984;2023-04-25T07:20:21;100007.06;;;18.13;40.17
59391;BME280;53405;57.012;40.984;2023-04-25T07:22:51;100008.50;;;18.28;40.59
59391;BME280;53405;57.012;40.984;2023-04-25T07:25:20;100012.78;;;18.29;39.76
59391;BME280;53405;57.012;40.984;2023-04-25T07:27:49;100012.25;;;18.50;40.25
59391;BME280;53405;57.012;40.984;2023-04-25T07:30:19;100008.63;;;18.45;40.55
59391;BME280;53405;57.012;40.984;2023-04-25T07:32:47;100011.63;;;18.36;39.45
59391;BME280;53405;57.012;40.984;2023-04-25T07:35:16;100018.38;;;18.39;38.65
59391;BME280;53405;57.012;40.984;2023-04-25T07:37:43;100009.84;;;18.60;39.88
59391;BME280;53405;57.012;40.984;2023-04-25T07:40:18;100018.19;;;18.76;39.04
59391;BME280;53405;57.012;40.984;2023-04-25T07:42:53;100011.16;;;19.05;37.79
59391;BME280;53405;57.012;40.984;2023-04-25T07:45:28;100008.56;;;19.10;36.16
59391;BME280;53405;57.012;40.984;2023-04-25T07:47:56;100008.56;;;19.10;37.14
59391;BME280;53405;57.012;40.984;2023-04-25T07:50:24;99998.63;;;18.94;38.89
59391;BME280;53405;57.012;40.984;2023-04-25T07:52:53;100007.41;;;19.18;37.38
59391;BME280;53405;57.012;40.984;2023-04-25T07:55:26;100012.16;;;19.28;37.36
59391;BME280;53405;57.012;40.984;2023-04-25T07:58:23;100019.47;;;19.32;36.30
59391;BME280;53405;57.012;40.984;2023-04-25T08:00:59;99997.16;;;19.39;37.72
59391;BME280;53405;57.012;40.984;2023-04-25T08:03:47;100006.25;;;19.78;36.85
59391;BME280;53405;57.012;40.984;2023-04-25T08:06:21;100013.53;;;19.83;36.71
59391;BME280;53405;57.012;40.984;2023-04-25T08:09:20;100011.59;;;20.07;37.03
59391;BME280;53405;57.012;40.984;2023-04-25T08:11:49;100006.28;;;19.95;36.35
59391;BME280;53405;57.012;40.984;2023-04-25T08:14:22;100006.56;;;20.11;35.50
59391;BME280;53405;57.012;40.984;2023-04-25T08:16:50;100006.69;;;20.33;35.19
59391;BME280;53405;57.012;40.984;2023-04-25T08:19:18;100000.06;;;20.69;34.38
59391;BME280;53405;57.012;40.984;2023-04-25T08:21:47;100009.88;;;21.20;34.62
59391;BME280;53405;57.012;40.984;2023-04-25T08:24:20;100005.69;;;21.29;33.18
59391;BME280;53405;57.012;40.984;2023-04-25T08:26:48;99983.56;;;20.94;33.35
59391;BME280;53405;57.012;40.984;2023-04-25T08:29:19;99986.69;;;21.08;32.89
59391;BME280;53405;57.012;40.984;2023-04-25T08:31:46;100005.84;;;21.61;31.14
59391;BME280;53405;57.012;40.984;2023-04-25T08:34:15;100001.84;;;21.64;32.64
59391;BME280;53405;57.012;40.984;2023-04-25T08:36:47;99988.28;;;21.98;31.41
59391;BME280;53405;57.012;40.984;2023-04-25T08:39:38;99997.28;;;21.64;31.89
59391;BME280;53405;57.012;40.984;2023-04-25T08:42:26;99995.28;;;21.33;33.31
59391;BME280;53405;57.012;40.984;2023-04-25T08:44:55;99996.50;;;21.91;32.27
59391;BME280;53405;57.012;40.984;2023-04-25T08:47:32;99981.25;;;21.92;31.84
59391;BME280;53405;57.012;40.984;2023-04-25T08:50:03;99998.78;;;22.05;31.69
59391;BME280;53405;57.012;40.984;2023-04-25T08:52:36;99982.38;;;22.61;31.35
59391;BME280;53405;57.012;40.984;2023-04-25T08:55:06;99980.53;;;22.66;30.76
59391;BME280;53405;57.012;40.984;2023-04-25T08:57:38;99982.84;;;22.20;30.79
59391;BME280;53405;57.012;40.984;2023-04-25T09:00:09;99985.69;;;20.92;32.54
59391;BME280;53405;57.012;40.984;2023-04-25T09:02:39;99981.81;;;20.32;33.96
59391;BME280;53405;57.012;40.984;2023-04-25T09:05:09;99984.97;;;20.29;32.71
59391;BME280;53405;57.012;40.984;2023-04-25T09:07:37;99989.69;;;20.56;33.21
59391;BME280;53405;57.012;40.984;2023-04-25T09:10:06;99981.91;;;21.77;32.79
59391;BME280;53405;57.012;40.984;2023-04-25T09:12:37;99970.34;;;22.68;31.46
59391;BME280;53405;57.012;40.984;2023-04-25T09:15:09;99971.88;;;22.59;31.11
59391;BME280;53405;57.012;40.984;2023-04-25T09:18:04;99967.59;;;23.01;31.54
59391;BME280;53405;57.012;40.984;2023-04-25T09:20:43;99985.94;;;22.34;30.65
59391;BME280;53405;57.012;40.984;2023-04-25T09:23:26;99977.16;;;21.84;33.06
59391;BME280;53405;57.012;40.984;2023-04-25T09:25:54;99962.16;;;22.90;31.53
59391;BME280;53405;57.012;40.984;2023-04-25T09:28:24;99965.19;;;23.78;29.15
59391;BME280;53405;57.012;40.984;2023-04-25T09:30:58;99941.22;;;23.56;29.99
59391;BME280;53405;57.012;40.984;2023-04-25T09:33:34;99950.94;;;23.77;30.67
59391;BME280;53405;57.012;40.984;2023-04-25T09:36:12;99950.75;;;24.05;28.66
59391;BME280;53405;57.012;40.984;2023-04-25T09:39:18;99946.81;;;23.44;29.90
59391;BME280;53405;57.012;40.984;2023-04-25T09:41:59;99949.56;;;23.54;29.37
59391;BME280;53405;57.012;40.984;2023-04-25T09:44:28;99951.56;;;22.68;30.89
59391;BME280;53405;57.012;40.984;2023-04-25T09:46:55;99940.22;;;22.56;30.70
59391;BME280;53405;57.012;40.984;2023-04-25T09:49:26;99936.34;;;23.37;31.66
59391;BME280;53405;57.012;40.984;2023-04-25T09:52:03;99932.91;;;23.68;29.26
59391;BME280;53405;57.012;40.984;2023-04-25T09:54:48;99924.53;;;23.49;28.08
59391;BME280;53405;57.012;40.984;2023-04-25T09:57:23;99934.22;;;23.55;27.79
59391;BME280;53405;57.012;40.984;2023-04-25T09:59:54;99918.97;;;23.81;27.97
59391;BME280;53405;57.012;40.984;2023-04-25T10:02:26;99941.31;;;24.07;29.41
59391;BME280;53405;57.012;40.984;2023-04-25T10:05:00;99942.91;;;24.44;27.61
59391;BME280;53405;57.012;40.984;2023-04-25T10:07:38;99918.72;;;24.39;27.19
59391;BME280;53405;57.012;40.984;2023-04-25T10:10:15;99936.34;;;23.42;27.75
59391;BME280;53405;57.012;40.984;2023-04-25T10:12:44;99937.31;;;23.11;29.40
59391;BME280;53405;57.012;40.984;2023-04-25T10:15:13;99934.34;;;24.06;27.13
59391;BME280;53405;57.012;40.984;2023-04-25T10:17:43;99927.03;;;24.32;27.84
59391;BME280;53405;57.012;40.984;2023-04-25T10:20:11;99927.34;;;24.00;27.48
59391;BME280;53405;57.012;40.984;2023-04-25T10:22:44;99929.06;;;23.33;28.52
59391;BME280;53405;57.012;40.984;2023-04-25T10:25:12;99927.25;;;23.74;28.81
59391;BME280;53405;57.012;40.984;2023-04-25T10:27:41;99943.44;;;24.31;27.98
59391;BME280;53405;57.012;40.984;2023-04-25T10:30:10;99934.00;;;24.54;27.01
59391;BME280;53405;57.012;40.984;2023-04-25T10:32:43;99931.16;;;25.16;25.73
59391;BME280;53405;57.012;40.984;2023-04-25T10:35:37;99927.66;;;25.15;26.16
59391;BME280;53405;57.012;40.984;2023-04-25T10:38:11;99920.22;;;24.92;25.26
59391;BME280;53405;57.012;40.984;2023-04-25T10:40:40;99889.91;;;25.31;25.43
59391;BME280;53405;57.012;40.984;2023-04-25T10:43:40;99924.31;;;25.84;24.72
59391;BME280;53405;57.012;40.984;2023-04-25T10:48:50;99902.81;;;25.23;25.24
59391;BME280;53405;57.012;40.984;2023-04-25T10:51:22;99899.56;;;25.37;25.64
59391;BME280;53405;57.012;40.984;2023-04-25T10:56:26;99902.56;;;25.70;24.99
59391;BME280;53405;57.012;40.984;2023-04-25T10:59:14;99899.28;;;25.78;24.30
59391;BME280;53405;57.012;40.984;2023-04-25T11:01:44;99902.47;;;25.46;25.08
59391;BME280;53405;57.012;40.984;2023-04-25T11:04:32;99879.47;;;25.58;25.04
59391;BME280;53405;57.012;40.984;2023-04-25T11:09:50;99892.88;;;24.38;26.05
59391;BME280;53405;57.012;40.984;2023-04-25T11:12:18;99886.97;;;24.21;26.73
59391;BME280;53405;57.012;40.984;2023-04-25T11:14:46;99885.75;;;24.88;25.10
59391;BME280;53405;57.012;40.984;2023-04-25T11:17:13;99886.03;;;24.87;25.49
59391;BME280;53405;57.012;40.984;2023-04-25T11:19:42;99885.06;;;24.57;25.76
59391;BME280;53405;57.012;40.984;2023-04-25T11:22:10;99878.66;;;24.02;27.48
59391;BME280;53405;57.012;40.984;2023-04-25T11:24:39;99874.84;;;24.23;26.24
59391;BME280;53405;57.012;40.984;2023-04-25T11:27:07;99873.34;;;24.93;25.37
59391;BME280;53405;57.012;40.984;2023-04-25T11:29:35;99869.47;;;25.14;25.41
59391;BME280;53405;57.012;40.984;2023-04-25T11:32:03;99867.81;;;24.63;24.82
59391;BME280;53405;57.012;40.984;2023-04-25T11:34:32;99855.81;;;24.09;25.10
59391;BME280;53405;57.012;40.984;2023-04-25T11:37:01;99868.34;;;23.16;27.50
59391;BME280;53405;57.012;40.984;2023-04-25T11:39:29;99861.69;;;23.65;27.74
59391;BME280;53405;57.012;40.984;2023-04-25T11:41:57;99868.97;;;23.95;26.91
59391;BME280;53405;57.012;40.984;2023-04-25T11:44:25;99864.13;;;23.97;27.30
59391;BME280;53405;57.012;40.984;2023-04-25T11:46:55;99856.31;;;23.44;26.70
59391;BME280;53405;57.012;40.984;2023-04-25T11:49:22;99841.50;;;23.52;27.52
59391;BME280;53405;57.012;40.984;2023-04-25T11:51:52;99816.19;;;24.30;25.55
59391;BME280;53405;57.012;40.984;2023-04-25T11:54:19;99842.34;;;24.14;26.33
59391;BME280;53405;57.012;40.984;2023-04-25T11:56:47;99813.03;;;23.97;26.56
59391;BME280;53405;57.012;40.984;2023-04-25T11:59:15;99836.56;;;24.67;25.63
59391;BME280;53405;57.012;40.984;2023-04-25T12:01:49;99832.84;;;24.48;25.89
59391;BME280;53405;57.012;40.984;2023-04-25T12:04:22;99824.78;;;25.08;25.02
59391;BME280;53405;57.012;40.984;2023-04-25T12:06:52;99833.59;;;25.29;24.80
59391;BME280;53405;57.012;40.984;2023-04-25T12:09:24;99809.75;;;25.41;24.51
59391;BME280;53405;57.012;40.984;2023-04-25T12:11:56;99795.50;;;24.96;24.79
59391;BME280;53405;57.012;40.984;2023-04-25T12:14:27;99809.72;;;25.02;24.99
59391;BME280;53405;57.012;40.984;2023-04-25T12:17:00;99805.84;;;24.74;25.99
59391;BME280;53405;57.012;40.984;2023-04-25T12:19:33;99803.50;;;25.06;25.26
59391;BME280;53405;57.012;40.984;2023-04-25T12:22:02;99804.63;;;25.00;25.31
59391;BME280;53405;57.012;40.984;2023-04-25T12:24:33;99791.41;;;24.44;25.43
59391;BME280;53405;57.012;40.984;2023-04-25T12:27:05;99795.78;;;24.19;26.15
59391;BME280;53405;57.012;40.984;2023-04-25T12:29:34;99792.63;;;24.02;26.98
59391;BME280;53405;57.012;40.984;2023-04-25T12:32:08;99776.41;;;24.22;27.07
59391;BME280;53405;57.012;40.984;2023-04-25T12:34:36;99774.44;;;24.53;26.06
59391;BME280;53405;57.012;40.984;2023-04-25T12:37:03;99771.91;;;23.97;26.83
59391;BME280;53405;57.012;40.984;2023-04-25T12:39:32;99763.34;;;23.18;27.92
59391;BME280;53405;57.012;40.984;2023-04-25T12:42:00;99762.97;;;22.99;28.30
59391;BME280;53405;57.012;40.984;2023-04-25T12:44:28;99758.66;;;22.72;29.41
59391;BME280;53405;57.012;40.984;2023-04-25T12:46:56;99707.81;;;22.34;29.22
59391;BME280;53405;57.012;40.984;2023-04-25T12:49:24;99756.91;;;22.40;28.94
59391;BME280;53405;57.012;40.984;2023-04-25T12:51:53;99750.78;;;22.50;28.80
59391;BME280;53405;57.012;40.984;2023-04-25T12:54:21;99751.00;;;22.43;28.67
59391;BME280;53405;57.012;40.984;2023-04-25T12:56:48;99749.09;;;22.33;29.35
59391;BME280;53405;57.012;40.984;2023-04-25T12:59:17;99750.13;;;22.27;29.60
59391;BME280;53405;57.012;40.984;2023-04-25T13:01:45;99750.72;;;22.34;29.15
59391;BME280;53405;57.012;40.984;2023-04-25T13:04:12;99738.72;;;22.52;28.65
59391;BME280;53405;57.012;40.984;2023-04-25T13:06:40;99742.53;;;22.72;28.67
59391;BME280;53405;57.012;40.984;2023-04-25T13:09:08;99708.44;;;22.67;29.82
59391;BME280;53405;57.012;40.984;2023-04-25T13:11:35;99722.16;;;23.02;28.48
59391;BME280;53405;57.012;40.984;2023-04-25T13:14:04;99724.38;;;23.20;28.28
59391;BME280;53405;57.012;40.984;2023-04-25T13:16:32;99720.03;;;22.94;29.45
59391;BME280;53405;57.012;40.984;2023-04-25T13:18:59;99713.84;;;22.93;29.43